createdAt,value
2018-08-17T00:00:33.631Z,100909.95
2018-08-17T00:03:03.086Z,100912.58
2018-08-17T00:05:31.509Z,100904.07
2018-08-17T00:08:00.075Z,100901.55
2018-08-17T00:10:28.577Z,100902.70
2018-08-17T00:12:57.374Z,100895.52
2018-08-17T00:15:25.948Z,100898.95
2018-08-17T00:17:55.053Z,100897.33
2018-08-17T00:20:23.591Z,100895.32
2018-08-17T00:22:52.012Z,100887.47
2018-08-17T00:25:21.472Z,100892.55
2018-08-17T00:27:49.996Z,100886.95
2018-08-17T00:30:18.536Z,100883.34
2018-08-17T00:32:47.021Z,100881.91
2018-08-17T00:35:16.177Z,100872.11
2018-08-17T00:37:44.833Z,100876.95
2018-08-17T00:40:13.639Z,100881.93
2018-08-17T00:42:42.615Z,100881.33
2018-08-17T00:45:11.440Z,100880.27
2018-08-17T00:47:40.327Z,100876.80
2018-08-17T00:50:08.776Z,100883.48
2018-08-17T00:52:37.280Z,100889.83
2018-08-17T00:55:05.940Z,100887.75
2018-08-17T00:57:34.391Z,100890.88
2018-08-17T01:00:02.933Z,100894.16
2018-08-17T01:02:31.422Z,100893.05
2018-08-17T01:04:59.892Z,100895.16
2018-08-17T01:07:28.345Z,100893.45
2018-08-17T01:09:56.931Z,100892.91
2018-08-17T01:12:25.459Z,100892.59
2018-08-17T01:14:54.069Z,100890.38
2018-08-17T01:17:22.768Z,100888.22
2018-08-17T01:19:51.302Z,100888.97
2018-08-17T01:22:19.802Z,100887.06
2018-08-17T01:24:48.291Z,100880.52
2018-08-17T01:27:16.796Z,100890.53
2018-08-17T01:29:45.659Z,100880.72
2018-08-17T01:32:14.042Z,100883.63
2018-08-17T01:34:42.744Z,100878.11
2018-08-17T01:37:11.230Z,100875.04
2018-08-17T01:39:39.796Z,100876.72
2018-08-17T01:42:08.277Z,100872.57
2018-08-17T01:49:14.157Z,100880.22
2018-08-17T01:51:42.612Z,100879.11
2018-08-17T01:54:11.132Z,100882.03
2018-08-17T01:56:39.613Z,100882.30
2018-08-17T01:59:08.098Z,100885.40
2018-08-17T02:01:36.725Z,100882.02
2018-08-17T02:04:05.307Z,100886.23
2018-08-17T02:06:33.779Z,100882.50
2018-08-17T02:09:02.365Z,100885.12
2018-08-17T02:11:30.830Z,100890.61
2018-08-17T02:14:00.746Z,100887.33
2018-08-17T02:16:29.592Z,100882.77
2018-08-17T02:18:58.044Z,100875.67
2018-08-17T02:21:27.471Z,100873.27
2018-08-17T02:23:56.700Z,100883.72
2018-08-17T02:26:26.024Z,100878.09
2018-08-17T02:28:54.442Z,100881.31
2018-08-17T02:31:22.970Z,100882.11
2018-08-17T02:33:51.474Z,100880.09
2018-08-17T02:36:19.924Z,100879.62
2018-08-17T02:38:48.333Z,100887.53
2018-08-17T02:41:16.843Z,100880.82
2018-08-17T02:43:45.333Z,100887.30
2018-08-17T02:46:13.834Z,100880.82
2018-08-17T02:48:42.282Z,100887.09
2018-08-17T02:51:10.742Z,100888.48
2018-08-17T02:53:39.175Z,100879.39
2018-08-17T02:56:07.699Z,100881.24
2018-08-17T02:58:36.249Z,100871.69
2018-08-17T03:01:04.763Z,100879.59
2018-08-17T03:03:33.157Z,100883.25
2018-08-17T03:06:01.646Z,100878.30
2018-08-17T03:08:30.077Z,100873.02
2018-08-17T03:10:58.694Z,100874.91
2018-08-17T03:13:27.166Z,100869.55
2018-08-17T03:15:55.677Z,100873.84
2018-08-17T03:18:24.250Z,100874.83
2018-08-17T03:20:52.635Z,100876.67
2018-08-17T03:23:21.048Z,100883.27
2018-08-17T03:25:49.451Z,100887.72
2018-08-17T03:28:17.908Z,100893.53
2018-08-17T03:30:46.447Z,100901.42
2018-08-17T03:33:14.874Z,100900.73
2018-08-17T03:35:43.289Z,100908.02
2018-08-17T03:38:11.876Z,100909.42
2018-08-17T03:40:40.868Z,100919.10
2018-08-17T03:43:09.740Z,100918.38
2018-08-17T03:45:38.259Z,100924.06
2018-08-17T03:48:07.361Z,100929.88
2018-08-17T03:50:35.841Z,100926.72
2018-08-17T03:53:04.999Z,100928.52
2018-08-17T03:55:33.466Z,100930.64
2018-08-17T03:58:02.912Z,100932.30
2018-08-17T04:00:31.361Z,100929.73
2018-08-17T04:02:59.809Z,100934.52
2018-08-17T04:05:28.235Z,100931.63
2018-08-17T04:07:56.673Z,100935.63
2018-08-17T04:10:25.198Z,100931.89
2018-08-17T04:12:53.652Z,100937.97
2018-08-17T04:15:23.393Z,100938.66
2018-08-17T04:17:52.038Z,100943.55
2018-08-17T04:20:20.682Z,100946.63
2018-08-17T04:22:49.509Z,100954.66
2018-08-17T04:25:18.272Z,100954.84
2018-08-17T04:27:47.027Z,100956.70
2018-08-17T04:30:15.488Z,100963.81
2018-08-17T04:32:44.070Z,100968.82
2018-08-17T04:35:12.669Z,100970.11
2018-08-17T04:37:41.212Z,100976.89
2018-08-17T04:40:09.724Z,100970.33
2018-08-17T04:42:38.800Z,100979.03
2018-08-17T04:45:08.184Z,100970.52
2018-08-17T04:47:37.495Z,100979.54
2018-08-17T04:50:08.006Z,100975.05
2018-08-17T04:52:36.468Z,100980.18
2018-08-17T04:55:04.972Z,100986.42
2018-08-17T04:57:34.137Z,100983.24
2018-08-17T05:00:02.665Z,100989.31
2018-08-17T05:02:32.708Z,100981.36
2018-08-17T05:05:01.096Z,100989.23
2018-08-17T05:07:30.144Z,100981.36
2018-08-17T05:09:58.573Z,100988.95
2018-08-17T05:12:27.095Z,100996.30
2018-08-17T05:14:56.618Z,100995.85
2018-08-17T05:17:25.146Z,100999.77
2018-08-17T05:19:54.317Z,101000.22
2018-08-17T05:22:24.056Z,101000.30
2018-08-17T05:24:52.617Z,101004.13
2018-08-17T05:27:21.632Z,101004.70
2018-08-17T05:29:50.145Z,101008.85
2018-08-17T05:32:18.635Z,101008.23
2018-08-17T05:34:47.113Z,101011.62
2018-08-17T05:37:16.065Z,101014.19
2018-08-17T05:39:44.529Z,101015.33
2018-08-17T05:42:15.417Z,101011.73
2018-08-17T05:44:44.905Z,101011.89
2018-08-17T05:47:13.425Z,101012.83
2018-08-17T05:49:44.062Z,101012.91
2018-08-17T05:52:12.684Z,101019.95
2018-08-17T05:54:41.197Z,101018.94
2018-08-17T05:57:10.410Z,101022.06
2018-08-17T05:59:39.637Z,101021.38
2018-08-17T06:02:08.173Z,101035.23
2018-08-17T06:04:36.587Z,101036.58
2018-08-17T06:07:06.096Z,101042.20
2018-08-17T06:09:35.716Z,101050.20
2018-08-17T06:12:04.356Z,101051.50
2018-08-17T06:14:32.863Z,101054.48
2018-08-17T06:17:01.507Z,101065.41
2018-08-17T06:19:30.061Z,101063.43
2018-08-17T06:21:58.979Z,101063.99
2018-08-17T06:24:27.396Z,101063.06
2018-08-17T06:26:56.784Z,101061.64
2018-08-17T06:29:25.462Z,101065.73
2018-08-17T06:31:54.171Z,101066.44
2018-08-17T06:34:22.688Z,101062.84
2018-08-17T06:36:51.243Z,101064.15
2018-08-17T06:39:20.215Z,101070.52
2018-08-17T06:41:48.760Z,101070.69
2018-08-17T06:44:17.212Z,101076.52
2018-08-17T06:46:45.853Z,101078.16
2018-08-17T06:49:14.289Z,101079.64
2018-08-17T06:51:43.098Z,101079.52
2018-08-17T06:54:11.601Z,101076.95
2018-08-17T06:56:40.149Z,101076.81
2018-08-17T06:59:08.747Z,101083.66
2018-08-17T07:01:37.206Z,101083.74
2018-08-17T07:04:06.555Z,101084.80
2018-08-17T07:06:36.765Z,101087.73
2018-08-17T07:09:07.677Z,101095.42
2018-08-17T07:11:36.667Z,101084.11
2018-08-17T07:14:07.506Z,101090.75
2018-08-17T07:16:37.307Z,101091.52
2018-08-17T07:19:05.729Z,101090.80
2018-08-17T07:21:35.053Z,101094.84
2018-08-17T07:24:03.904Z,101090.92
2018-08-17T07:26:33.205Z,101096.30
2018-08-17T07:29:02.317Z,101093.01
2018-08-17T07:31:31.109Z,101091.30
2018-08-17T07:33:59.547Z,101090.39
2018-08-17T07:36:28.839Z,101096.14
2018-08-17T07:38:57.258Z,101092.57
2018-08-17T07:41:25.795Z,101089.24
2018-08-17T07:43:55.086Z,101087.80
2018-08-17T07:46:25.317Z,101080.63
2018-08-17T07:48:56.128Z,101086.28
2018-08-17T07:51:24.784Z,101086.92
2018-08-17T07:53:53.414Z,101084.06
2018-08-17T07:56:22.800Z,101081.30
2018-08-17T07:58:51.269Z,101078.07
2018-08-17T08:01:19.888Z,101076.23
2018-08-17T08:03:49.948Z,101079.56
2018-08-17T08:06:18.409Z,101092.57
2018-08-17T08:08:46.926Z,101088.16
2018-08-17T08:11:15.441Z,101089.60
2018-08-17T08:13:45.412Z,101092.95
2018-08-17T08:16:14.596Z,101096.36
2018-08-17T08:18:44.072Z,101094.15
2018-08-17T08:21:13.140Z,101103.22
2018-08-17T08:23:41.587Z,101103.31
2018-08-17T08:26:11.360Z,101101.79
2018-08-17T08:28:39.864Z,101102.19
2018-08-17T08:31:08.354Z,101104.75
2018-08-17T08:33:36.808Z,101101.61
2018-08-17T08:36:05.280Z,101104.26
2018-08-17T08:38:34.664Z,101102.82
2018-08-17T08:41:03.710Z,101111.15
2018-08-17T08:43:33.165Z,101110.75
2018-08-17T08:46:02.675Z,101114.30
2018-08-17T08:48:32.539Z,101114.08
2018-08-17T08:51:01.863Z,101116.09
2018-08-17T08:53:30.823Z,101121.48
2018-08-17T08:56:00.355Z,101124.13
2018-08-17T08:58:28.808Z,101129.61
2018-08-17T09:00:58.000Z,101128.53
2018-08-17T09:03:26.497Z,101131.77
2018-08-17T09:05:55.920Z,101129.77
2018-08-17T09:08:24.566Z,101123.75
2018-08-17T09:10:54.263Z,101140.30
2018-08-17T09:13:24.439Z,101142.11
2018-08-17T09:15:52.948Z,101145.58
2018-08-17T09:18:21.965Z,101142.33
2018-08-17T09:20:51.484Z,101144.49
2018-08-17T09:23:20.710Z,101148.09
2018-08-17T09:25:49.406Z,101146.66
2018-08-17T09:28:18.192Z,101146.27
2018-08-17T09:30:46.720Z,101148.27
2018-08-17T09:33:16.219Z,101150.84
2018-08-17T09:35:45.730Z,101150.62
2018-08-17T09:38:16.359Z,101140.89
2018-08-17T09:40:44.858Z,101143.13
2018-08-17T09:43:13.368Z,101142.66
2018-08-17T09:45:43.668Z,101136.38
2018-08-17T09:48:13.328Z,101140.43
2018-08-17T09:50:41.789Z,101130.62
2018-08-17T09:53:10.867Z,101134.05
2018-08-17T09:55:39.836Z,101129.75
2018-08-17T09:58:08.491Z,101128.66
2018-08-17T10:00:40.408Z,101128.22
2018-08-17T10:03:13.520Z,101138.23
2018-08-17T10:05:43.317Z,101128.45
2018-08-17T10:08:17.571Z,101130.95
2018-08-17T10:10:45.993Z,101124.91
2018-08-17T10:13:15.157Z,101126.05
2018-08-17T10:15:45.601Z,101132.05
2018-08-17T10:18:15.989Z,101121.79
2018-08-17T10:20:44.749Z,101114.55
2018-08-17T10:23:19.647Z,101108.69
2018-08-17T10:25:48.135Z,101115.92
2018-08-17T10:28:17.637Z,101121.50
2018-08-17T10:30:46.059Z,101125.94
2018-08-17T10:33:14.554Z,101120.30
2018-08-17T10:35:44.606Z,101127.69
2018-08-17T10:38:13.029Z,101123.95
2018-08-17T10:40:41.733Z,101115.13
2018-08-17T10:43:10.368Z,101115.18
2018-08-17T10:45:38.794Z,101108.19
2018-08-17T10:48:07.378Z,101105.38
2018-08-17T10:50:37.197Z,101089.83
2018-08-17T10:53:06.106Z,101086.16
2018-08-17T10:55:41.512Z,101087.02
2018-08-17T10:58:12.501Z,101084.10
2018-08-17T11:00:41.018Z,101082.40
2018-08-17T11:03:11.472Z,101094.77
2018-08-17T11:05:41.455Z,101088.50
2018-08-17T11:08:10.844Z,101096.34
2018-08-17T11:10:40.912Z,101076.89
2018-08-17T11:13:09.469Z,101080.58
2018-08-17T11:15:37.984Z,101066.65
2018-08-17T11:18:06.698Z,101068.77
2018-08-17T11:20:35.345Z,101073.86
2018-08-17T11:23:04.014Z,101079.48
2018-08-17T11:25:32.495Z,101081.16
2018-08-17T11:28:01.148Z,101085.33
2018-08-17T11:30:30.315Z,101090.05
2018-08-17T11:32:59.254Z,101083.09
2018-08-17T11:35:28.378Z,101086.96
2018-08-17T11:37:58.274Z,101094.34
2018-08-17T11:40:28.917Z,101087.68
2018-08-17T11:42:57.397Z,101089.86
2018-08-17T11:45:27.022Z,101093.18
2018-08-17T11:47:56.629Z,101092.91
2018-08-17T11:50:26.256Z,101096.44
2018-08-17T11:52:59.265Z,101090.59
2018-08-17T11:55:31.235Z,101090.13
2018-08-17T11:57:59.775Z,101097.84
2018-08-17T12:00:34.372Z,101092.68
2018-08-17T12:03:02.912Z,101094.34
2018-08-17T12:05:31.705Z,101106.32
2018-08-17T12:08:00.322Z,101113.84
2018-08-17T12:10:28.859Z,101122.17
2018-08-17T12:13:03.559Z,101121.56
2018-08-17T12:15:37.218Z,101133.06
2018-08-17T12:18:07.014Z,101128.79
2018-08-17T12:20:36.528Z,101145.21
2018-08-17T12:23:05.426Z,101137.96
2018-08-17T12:25:45.536Z,101140.45
2018-08-17T12:28:14.097Z,101140.67
2018-08-17T12:30:43.300Z,101147.69
2018-08-17T12:33:12.788Z,101145.87
2018-08-17T12:35:42.538Z,101140.00
2018-08-17T12:38:14.912Z,101145.17
2018-08-17T12:40:53.887Z,101142.13
2018-08-17T12:43:33.377Z,101153.14
2018-08-17T12:46:02.750Z,101151.27
2018-08-17T12:48:31.720Z,101158.56
2018-08-17T12:51:05.379Z,101163.05
2018-08-17T12:53:34.522Z,101164.50
2018-08-17T12:56:03.048Z,101153.43
2018-08-17T12:58:31.606Z,101164.09
2018-08-17T13:01:00.375Z,101162.52
2018-08-17T13:03:28.886Z,101164.83
2018-08-17T13:05:57.419Z,101173.96
2018-08-17T13:08:27.047Z,101161.48
2018-08-17T13:10:58.794Z,101167.77
2018-08-17T13:13:28.478Z,101178.97
2018-08-17T13:16:02.350Z,101174.84
2018-08-17T13:18:33.210Z,101178.08
2018-08-17T13:21:02.236Z,101182.82
2018-08-17T13:23:31.988Z,101188.20
2018-08-17T13:26:01.722Z,101181.91
2018-08-17T13:28:30.407Z,101181.64
2018-08-17T13:31:00.179Z,101183.22
2018-08-17T13:33:28.698Z,101181.93
2018-08-17T13:35:57.304Z,101187.34
2018-08-17T13:38:25.867Z,101177.98
2018-08-17T13:40:54.917Z,101172.76
2018-08-17T13:43:25.437Z,101177.27
2018-08-17T13:45:54.014Z,101179.08
2018-08-17T13:48:23.165Z,101175.59
2018-08-17T13:50:54.473Z,101182.25
2018-08-17T13:53:24.029Z,101178.34
2018-08-17T13:55:54.613Z,101177.58
2018-08-17T13:58:25.244Z,101180.89
2018-08-17T14:00:55.738Z,101193.08
2018-08-17T14:03:25.320Z,101192.81
2018-08-17T14:05:53.814Z,101198.67
2018-08-17T14:08:24.866Z,101190.10
2018-08-17T14:10:53.900Z,101190.39
2018-08-17T14:13:23.388Z,101188.12
2018-08-17T14:15:52.481Z,101191.91
2018-08-17T14:18:21.062Z,101194.60
2018-08-17T14:20:49.640Z,101189.73
2018-08-17T14:23:20.129Z,101192.41
2018-08-17T14:25:48.798Z,101194.31
2018-08-17T14:28:17.339Z,101196.97
2018-08-17T14:30:47.269Z,101188.83
2018-08-17T14:33:16.734Z,101192.88
2018-08-17T14:35:48.687Z,101190.17
2018-08-17T14:38:25.404Z,101194.96
2018-08-17T14:40:54.945Z,101194.70
2018-08-17T14:43:24.022Z,101200.48
2018-08-17T14:45:54.772Z,101193.16
2018-08-17T14:48:26.735Z,101192.45
2018-08-17T14:50:57.333Z,101197.36
2018-08-17T14:53:26.913Z,101199.03
2018-08-17T14:55:56.455Z,101189.64
2018-08-17T14:58:26.778Z,101184.84
2018-08-17T15:00:55.167Z,101188.20
2018-08-17T15:03:24.245Z,101193.34
2018-08-17T15:05:52.888Z,101193.37
2018-08-17T15:08:22.650Z,101188.98
2018-08-17T15:10:51.675Z,101194.10
2018-08-17T15:13:22.002Z,101194.13
2018-08-17T15:15:52.455Z,101191.28
2018-08-17T15:18:21.920Z,101193.63
2018-08-17T15:20:50.982Z,101196.22
2018-08-17T15:23:22.444Z,101197.53
2018-08-17T15:25:52.230Z,101207.48
2018-08-17T15:28:24.178Z,101203.41
2018-08-17T15:30:53.341Z,101198.16
2018-08-17T15:33:26.013Z,101190.04
2018-08-17T15:35:55.406Z,101186.41
2018-08-17T15:38:24.058Z,101183.45
2018-08-17T15:40:59.564Z,101185.75
2018-08-17T15:43:32.404Z,101188.83
2018-08-17T15:46:03.894Z,101186.59
2018-08-17T15:48:45.463Z,101180.88
2018-08-17T15:51:16.132Z,101185.19
2018-08-17T15:53:44.561Z,101176.15
2018-08-17T15:56:13.792Z,101178.55
2018-08-17T15:58:45.089Z,101181.69
2018-08-17T16:01:16.711Z,101172.63
2018-08-17T16:03:49.135Z,101176.67
2018-08-17T16:06:17.689Z,101183.95
2018-08-17T16:08:48.852Z,101187.15
2018-08-17T16:11:20.766Z,101183.63
2018-08-17T16:13:53.057Z,101185.75
2018-08-17T16:16:23.414Z,101182.05
2018-08-17T16:18:53.269Z,101181.73
2018-08-17T16:21:22.770Z,101177.30
2018-08-17T16:23:51.620Z,101179.64
2018-08-17T16:26:20.239Z,101181.88
2018-08-17T16:28:49.808Z,101182.00
2018-08-17T16:31:19.092Z,101180.20
2018-08-17T16:33:50.399Z,101176.63
2018-08-17T16:36:20.458Z,101183.52
2018-08-17T16:38:49.687Z,101188.25
2018-08-17T16:41:19.688Z,101189.91
2018-08-17T16:43:52.837Z,101191.83
2018-08-17T16:46:25.885Z,101197.55
2018-08-17T16:49:08.358Z,101193.69
2018-08-17T16:51:42.596Z,101200.84
2018-08-17T16:54:12.085Z,101202.27
2018-08-17T16:56:42.935Z,101197.42
2018-08-17T16:59:12.880Z,101196.20
2018-08-17T17:01:41.373Z,101189.45
2018-08-17T17:04:10.025Z,101195.53
2018-08-17T17:06:39.367Z,101196.44
2018-08-17T17:09:08.640Z,101200.09
2018-08-17T17:11:37.312Z,101196.94
2018-08-17T17:14:06.092Z,101200.72
2018-08-17T17:16:41.073Z,101202.76
2018-08-17T17:19:17.341Z,101208.15
2018-08-17T17:21:47.305Z,101205.29
2018-08-17T17:24:16.494Z,101208.48
2018-08-17T17:26:46.598Z,101205.71
2018-08-17T17:29:15.079Z,101213.06
2018-08-17T17:31:48.927Z,101217.38
2018-08-17T17:34:17.508Z,101218.28
2018-08-17T17:36:46.227Z,101210.16
2018-08-17T17:39:15.865Z,101217.61
2018-08-17T17:41:44.604Z,101220.39
2018-08-17T17:44:13.571Z,101231.11
2018-08-17T17:46:42.270Z,101233.21
2018-08-17T17:49:12.010Z,101230.55
2018-08-17T17:51:40.577Z,101233.42
2018-08-17T17:54:09.264Z,101238.42
2018-08-17T17:56:38.851Z,101238.64
2018-08-17T17:59:14.621Z,101242.52
2018-08-17T18:01:43.213Z,101238.97
2018-08-17T18:04:12.660Z,101239.09
2018-08-17T18:06:41.765Z,101239.80
2018-08-17T18:09:11.419Z,101245.70
2018-08-17T18:11:41.684Z,101248.78
2018-08-17T18:14:10.198Z,101249.24
2018-08-17T18:16:38.739Z,101255.95
2018-08-17T18:19:07.958Z,101260.80
2018-08-17T18:21:38.016Z,101265.47
2018-08-17T18:24:12.607Z,101255.69
2018-08-17T18:26:48.629Z,101263.64
2018-08-17T18:29:19.388Z,101259.91
2018-08-17T18:31:48.104Z,101266.80
2018-08-17T18:34:16.699Z,101270.28
2018-08-17T18:36:45.293Z,101279.33
2018-08-17T18:39:15.257Z,101282.27
2018-08-17T18:41:45.007Z,101285.74
2018-08-17T18:44:13.807Z,101289.43
2018-08-17T18:46:42.590Z,101292.05
2018-08-17T18:49:11.107Z,101292.31
2018-08-17T18:51:39.596Z,101302.00
2018-08-17T18:54:08.585Z,101314.48
2018-08-17T18:56:37.936Z,101314.22
2018-08-17T18:59:06.502Z,101313.55
2018-08-17T19:01:35.351Z,101315.66
2018-08-17T19:04:03.799Z,101315.52
2018-08-17T19:06:33.700Z,101313.36
2018-08-17T19:09:02.461Z,101320.05
2018-08-17T19:11:31.596Z,101322.39
2018-08-17T19:14:00.143Z,101332.41
2018-08-17T19:16:28.634Z,101329.66
2018-08-17T19:18:57.128Z,101338.42
2018-08-17T19:21:25.915Z,101348.17
2018-08-17T19:23:54.792Z,101347.80
2018-08-17T19:26:23.314Z,101354.00
2018-08-17T19:28:52.891Z,101352.31
2018-08-17T19:31:21.438Z,101357.65
2018-08-17T19:33:50.144Z,101357.15
2018-08-17T19:36:18.639Z,101365.87
2018-08-17T19:38:47.238Z,101362.39
2018-08-17T19:41:15.969Z,101365.27
2018-08-17T19:43:44.463Z,101373.17
2018-08-17T19:46:13.175Z,101372.63
2018-08-17T19:48:41.685Z,101376.54
2018-08-17T19:51:15.696Z,101379.33
2018-08-17T19:53:44.924Z,101383.46
2018-08-17T19:56:14.024Z,101389.15
2018-08-17T19:58:43.630Z,101392.27
2018-08-17T20:01:12.911Z,101391.08
2018-08-17T20:03:41.842Z,101393.20
2018-08-17T20:06:10.729Z,101394.15
2018-08-17T20:08:42.018Z,101390.22
2018-08-17T20:11:12.256Z,101383.88
2018-08-17T20:13:41.292Z,101394.56
2018-08-17T20:16:16.028Z,101400.37
2018-08-17T20:18:44.880Z,101402.13
2018-08-17T20:21:13.817Z,101403.84
2018-08-17T20:26:29.294Z,101405.27
2018-08-17T20:53:34.210Z,101399.73
2018-08-17T20:56:03.584Z,101404.85
2018-08-17T20:58:32.712Z,101406.61
2018-08-17T21:01:02.121Z,101407.17
2018-08-17T21:03:30.681Z,101408.41
2018-08-17T21:06:00.779Z,101406.36
2018-08-17T21:08:29.431Z,101403.53
2018-08-17T21:10:57.853Z,101415.41
2018-08-17T21:13:28.025Z,101414.84
2018-08-17T21:15:57.495Z,101418.41
2018-08-17T21:18:26.206Z,101417.66
2018-08-17T21:20:55.449Z,101416.92
2018-08-17T21:23:23.980Z,101411.69
2018-08-17T21:25:52.405Z,101416.17
2018-08-17T21:28:20.967Z,101414.71
2018-08-17T21:30:51.413Z,101411.88
2018-08-17T21:33:20.323Z,101410.95
2018-08-17T21:35:50.139Z,101410.16
2018-08-17T21:38:19.940Z,101418.53
2018-08-17T21:40:49.688Z,101421.59
2018-08-17T21:43:19.186Z,101431.68
2018-08-17T21:46:00.204Z,101424.47
2018-08-17T21:51:35.773Z,101440.42
2018-08-17T22:00:42.186Z,101453.78
2018-08-17T22:03:40.308Z,101457.17
2018-08-17T22:06:30.754Z,101460.89
2018-08-17T22:09:17.303Z,101461.07
2018-08-17T22:15:32.056Z,101467.27
2018-08-17T22:18:00.957Z,101471.83
2018-08-17T22:20:30.221Z,101473.27
2018-08-17T22:22:59.510Z,101475.61
2018-08-17T22:25:28.131Z,101479.14
2018-08-17T22:27:56.774Z,101475.02
2018-08-17T22:30:26.300Z,101480.84
2018-08-17T22:32:54.854Z,101479.36
2018-08-17T22:35:24.117Z,101481.17
2018-08-17T22:37:52.825Z,101479.04
2018-08-17T22:40:22.312Z,101481.74
2018-08-17T22:42:51.399Z,101480.06
2018-08-17T22:45:19.877Z,101484.96
2018-08-17T22:47:48.320Z,101485.53
2018-08-17T22:50:16.829Z,101490.75
2018-08-17T22:52:45.368Z,101489.03
2018-08-17T22:55:13.919Z,101489.19
2018-08-17T22:57:42.441Z,101482.79
2018-08-17T23:00:17.516Z,101479.38
2018-08-17T23:02:47.725Z,101484.09
2018-08-17T23:05:34.348Z,101481.04
2018-08-17T23:08:02.890Z,101484.72
2018-08-17T23:10:31.388Z,101484.97
2018-08-17T23:13:00.136Z,101489.03
2018-08-17T23:15:28.704Z,101485.23
2018-08-17T23:17:58.600Z,101491.02
2018-08-17T23:20:32.502Z,101488.50
2018-08-17T23:23:02.010Z,101492.05
2018-08-17T23:25:30.683Z,101491.11
2018-08-17T23:27:59.414Z,101489.45
2018-08-17T23:30:27.946Z,101491.28
2018-08-17T23:32:57.283Z,101492.97
2018-08-17T23:35:25.767Z,101499.58
2018-08-17T23:37:54.253Z,101498.56
2018-08-17T23:40:22.728Z,101499.42
2018-08-17T23:42:51.580Z,101501.14
2018-08-17T23:45:20.296Z,101502.89
2018-08-17T23:47:48.800Z,101504.66
2018-08-17T23:50:17.783Z,101498.12
2018-08-17T23:52:46.324Z,101500.30
2018-08-17T23:55:17.650Z,101505.14
2018-08-17T23:57:46.227Z,101508.13
